createdAt,value
2022-12-25T00:00:24.689Z,1.30
2022-12-25T00:01:26.725Z,1.10
2022-12-25T00:02:29.874Z,1.10
2022-12-25T00:03:31.760Z,1.25
2022-12-25T00:04:33.517Z,1.15
2022-12-25T00:05:38.920Z,1.00
2022-12-25T00:06:40.603Z,1.10
2022-12-25T00:07:42.288Z,1.10
2022-12-25T00:08:44.068Z,0.80
2022-12-25T00:09:45.830Z,0.80
2022-12-25T00:10:47.530Z,1.13
2022-12-25T00:11:49.253Z,1.23
2022-12-25T00:12:51.314Z,1.20
2022-12-25T00:13:53.094Z,0.80
2022-12-25T00:14:54.810Z,0.90
2022-12-25T00:15:56.885Z,1.20
2022-12-25T00:16:58.814Z,1.30
2022-12-25T00:18:00.511Z,1.30
2022-12-25T00:19:02.208Z,1.00
2022-12-25T00:20:04.308Z,1.00
2022-12-25T00:21:07.584Z,1.17
2022-12-25T00:22:09.438Z,1.10
2022-12-25T00:23:11.141Z,1.00
2022-12-25T00:24:12.924Z,1.10
2022-12-25T00:25:14.692Z,0.95
2022-12-25T00:26:17.764Z,1.10
2022-12-25T00:27:19.516Z,1.20
2022-12-25T00:28:22.500Z,1.10
2022-12-25T00:29:24.207Z,1.17
2022-12-25T00:30:25.953Z,1.40
2022-12-25T00:31:27.899Z,1.40
2022-12-25T00:32:29.659Z,1.40
2022-12-25T00:33:31.377Z,1.20
2022-12-25T00:34:33.252Z,1.40
2022-12-25T00:35:35.020Z,1.30
2022-12-25T00:36:41.623Z,1.42
2022-12-25T00:37:43.980Z,1.08
2022-12-25T00:38:46.972Z,1.20
2022-12-25T00:39:49.885Z,1.20
2022-12-25T00:40:52.376Z,1.17
2022-12-25T00:42:12.758Z,1.25
2022-12-25T00:43:14.480Z,1.05
2022-12-25T00:44:16.236Z,1.13
2022-12-25T00:45:18.004Z,1.38
2022-12-25T00:46:19.911Z,1.40
2022-12-25T00:47:21.919Z,1.90
2022-12-25T00:48:24.303Z,1.80
2022-12-25T00:49:26.050Z,1.90
2022-12-25T00:50:27.760Z,1.80
2022-12-25T00:51:29.604Z,1.60
2022-12-25T00:52:31.402Z,1.88
2022-12-25T00:53:33.669Z,1.42
2022-12-25T00:54:35.423Z,1.58
2022-12-25T00:55:37.276Z,1.60
2022-12-25T00:56:40.213Z,1.40
2022-12-25T00:57:41.919Z,1.00
2022-12-25T00:58:43.652Z,1.40
2022-12-25T00:59:45.334Z,1.15
2022-12-25T01:00:47.921Z,1.20
2022-12-25T01:01:49.998Z,1.45
2022-12-25T01:02:51.931Z,1.00
2022-12-25T01:03:53.792Z,1.10
2022-12-25T01:04:57.113Z,1.23
2022-12-25T01:06:01.754Z,1.08
2022-12-25T01:07:03.533Z,1.08
2022-12-25T01:08:05.394Z,1.00
2022-12-25T01:09:26.135Z,1.02
2022-12-25T01:10:27.863Z,1.48
2022-12-25T01:11:30.350Z,1.50
2022-12-25T01:12:34.250Z,1.08
2022-12-25T01:13:37.404Z,1.17
2022-12-25T01:14:39.103Z,1.35
2022-12-25T01:15:40.818Z,1.20
2022-12-25T01:16:42.724Z,1.48
2022-12-25T01:17:45.235Z,1.48
2022-12-25T01:18:46.982Z,1.13
2022-12-25T01:19:48.749Z,1.67
2022-12-25T01:20:51.149Z,1.70
2022-12-25T01:21:52.904Z,1.40
2022-12-25T01:22:54.618Z,1.30
2022-12-25T01:23:56.757Z,1.33
2022-12-25T01:24:58.577Z,1.55
2022-12-25T01:26:08.580Z,1.33
2022-12-25T01:27:11.123Z,1.63
2022-12-25T01:28:13.067Z,1.55
2022-12-25T01:29:14.784Z,1.60
2022-12-25T01:30:16.569Z,1.58
2022-12-25T01:31:20.397Z,1.58
2022-12-25T01:32:22.175Z,1.52
2022-12-25T01:33:23.999Z,1.95
2022-12-25T01:34:25.703Z,1.50
2022-12-25T01:35:27.445Z,1.50
2022-12-25T01:36:29.208Z,1.67
2022-12-25T01:37:30.904Z,1.88
2022-12-25T01:38:32.630Z,1.48
2022-12-25T01:39:34.751Z,1.77
2022-12-25T01:40:36.466Z,1.63
2022-12-25T01:41:38.163Z,1.83
2022-12-25T01:42:39.909Z,1.60
2022-12-25T01:44:06.598Z,1.60
2022-12-25T01:45:38.480Z,1.70
2022-12-25T01:46:41.120Z,1.75
2022-12-25T01:47:42.807Z,2.20
2022-12-25T01:48:44.771Z,1.73
2022-12-25T01:49:50.075Z,2.10
2022-12-25T01:50:56.096Z,2.15
2022-12-25T01:52:02.802Z,2.17
2022-12-25T01:53:05.502Z,1.90
2022-12-25T01:54:12.260Z,2.00
2022-12-25T01:55:14.117Z,1.92
2022-12-25T01:56:15.930Z,1.75
2022-12-25T01:57:23.670Z,1.70
2022-12-25T01:58:25.857Z,1.80
2022-12-25T01:59:28.430Z,1.50
2022-12-25T02:00:30.210Z,1.90
2022-12-25T02:01:32.447Z,1.88
2022-12-25T02:02:35.071Z,1.90
2022-12-25T02:03:37.089Z,1.73
2022-12-25T02:04:46.633Z,1.63
2022-12-25T02:05:48.624Z,1.80
2022-12-25T02:06:52.293Z,1.50
2022-12-25T02:07:55.756Z,1.65
2022-12-25T02:08:59.266Z,1.88
2022-12-25T02:10:01.221Z,1.77
2022-12-25T02:11:02.993Z,1.50
2022-12-25T02:12:05.874Z,2.10
2022-12-25T02:13:08.093Z,1.80
2022-12-25T02:14:09.825Z,1.83
2022-12-25T02:15:17.316Z,2.08
2022-12-25T02:16:22.907Z,1.45
2022-12-25T02:17:48.063Z,1.63
2022-12-25T02:18:57.736Z,2.05
2022-12-25T02:20:21.161Z,1.85
2022-12-25T02:21:44.463Z,1.80
2022-12-25T02:23:13.846Z,1.85
2022-12-25T02:24:47.623Z,1.67
2022-12-25T02:26:01.274Z,1.65
2022-12-25T02:27:10.980Z,2.03
2022-12-25T02:28:15.836Z,1.73
2022-12-25T02:29:56.025Z,2.03
2022-12-25T02:31:22.647Z,1.83
2022-12-25T02:32:43.596Z,2.00
2022-12-25T02:34:04.695Z,1.73
2022-12-25T02:35:13.492Z,1.75
2022-12-25T02:36:21.017Z,2.42
2022-12-25T02:37:33.958Z,2.50
2022-12-25T02:38:59.773Z,2.40
2022-12-25T02:40:16.253Z,2.22
2022-12-25T02:41:18.545Z,2.20
2022-12-25T02:43:01.034Z,1.98
2022-12-25T02:44:27.768Z,2.25
2022-12-25T02:45:52.889Z,1.75
2022-12-25T02:47:14.491Z,1.95
2022-12-25T02:48:37.607Z,1.70
2022-12-25T02:49:59.005Z,1.80
2022-12-25T02:51:22.494Z,2.10
2022-12-25T02:52:46.242Z,2.20
2022-12-25T02:54:10.225Z,2.00
2022-12-25T02:55:34.873Z,1.63
2022-12-25T02:56:57.600Z,2.20
2022-12-25T02:58:23.157Z,1.90
2022-12-25T02:59:46.869Z,2.00
2022-12-25T03:01:16.033Z,1.52
2022-12-25T03:02:37.438Z,1.90
2022-12-25T03:04:00.014Z,1.88
2022-12-25T03:05:25.488Z,1.90
2022-12-25T03:06:43.116Z,2.20
2022-12-25T03:07:45.532Z,2.20
2022-12-25T03:08:53.716Z,1.98
2022-12-25T03:10:27.413Z,2.65
2022-12-25T03:11:32.261Z,3.00
2022-12-25T03:12:50.858Z,2.10
2022-12-25T03:14:17.646Z,2.08
2022-12-25T03:15:39.668Z,2.05
2022-12-25T03:16:50.653Z,2.30
2022-12-25T03:17:53.063Z,1.98
2022-12-25T03:18:57.319Z,2.42
2022-12-25T03:20:18.633Z,2.88
2022-12-25T03:21:39.242Z,3.28
2022-12-25T03:23:22.178Z,3.63
2022-12-25T03:24:42.274Z,3.67
2022-12-25T03:26:02.944Z,3.00
2022-12-25T03:27:04.665Z,2.70
2022-12-25T03:28:06.998Z,2.20
2022-12-25T03:29:08.746Z,2.47
2022-12-25T03:30:30.054Z,2.45
2022-12-25T03:31:53.332Z,2.08
2022-12-25T03:33:44.640Z,2.65
2022-12-25T03:35:24.737Z,2.67
2022-12-25T03:36:59.483Z,2.45
2022-12-25T03:38:37.049Z,2.40
2022-12-25T03:40:28.487Z,2.20
2022-12-25T03:41:54.680Z,2.13
2022-12-25T03:43:09.006Z,2.40
2022-12-25T03:44:51.108Z,2.33
2022-12-25T03:47:43.700Z,2.45
2022-12-25T03:49:10.815Z,2.70
2022-12-25T03:50:56.628Z,2.70
2022-12-25T03:52:19.077Z,2.50
2022-12-25T03:53:45.223Z,2.40
2022-12-25T03:55:08.013Z,2.08
2022-12-25T03:56:28.972Z,2.33
2022-12-25T03:57:53.154Z,2.30
2022-12-25T03:59:22.933Z,2.60
2022-12-25T04:00:44.380Z,2.47
2022-12-25T04:02:05.247Z,2.27
2022-12-25T04:03:25.527Z,1.98
2022-12-25T04:04:46.162Z,2.10
2022-12-25T04:06:06.634Z,2.92
2022-12-25T04:07:27.228Z,2.67
2022-12-25T04:08:47.877Z,2.08
2022-12-25T04:10:08.384Z,2.30
2022-12-25T04:11:28.520Z,2.60
2022-12-25T04:12:49.208Z,2.17
2022-12-25T04:14:09.750Z,2.77
2022-12-25T04:15:30.353Z,2.80
2022-12-25T04:16:50.990Z,2.65
2022-12-25T04:18:11.787Z,2.17
2022-12-25T04:19:32.425Z,2.28
2022-12-25T04:20:52.846Z,2.67
2022-12-25T04:22:13.349Z,2.60
2022-12-25T04:23:33.990Z,2.65
2022-12-25T04:24:54.645Z,2.43
2022-12-25T04:26:18.358Z,2.40
2022-12-25T04:27:38.982Z,2.33
2022-12-25T04:28:59.523Z,2.40
2022-12-25T04:30:20.084Z,2.60
2022-12-25T04:31:40.768Z,2.90
2022-12-25T04:33:01.403Z,2.50
2022-12-25T04:34:22.001Z,2.90
2022-12-25T04:35:42.548Z,2.88
2022-12-25T04:36:44.306Z,2.50
2022-12-25T04:37:46.042Z,2.83
2022-12-25T04:38:47.743Z,2.65
2022-12-25T04:39:49.528Z,2.28
2022-12-25T04:40:51.220Z,2.55
2022-12-25T04:41:53.085Z,2.97
2022-12-25T04:42:54.810Z,2.35
2022-12-25T04:43:56.528Z,2.88
2022-12-25T04:44:58.276Z,2.50
2022-12-25T04:46:01.415Z,3.10
2022-12-25T04:47:09.166Z,3.47
2022-12-25T04:48:12.757Z,3.13
2022-12-25T04:49:14.551Z,3.00
2022-12-25T04:50:16.315Z,3.03
2022-12-25T04:51:21.158Z,2.83
2022-12-25T04:52:22.964Z,2.22
2022-12-25T04:53:24.964Z,2.67
2022-12-25T04:54:26.703Z,2.47
2022-12-25T04:55:28.419Z,2.70
2022-12-25T04:56:30.123Z,2.47
2022-12-25T04:57:33.802Z,2.97
2022-12-25T04:58:35.581Z,2.75
2022-12-25T04:59:37.304Z,3.15
2022-12-25T05:00:39.052Z,3.38
2022-12-25T05:01:41.263Z,2.75
2022-12-25T05:02:43.277Z,2.30
2022-12-25T05:03:45.272Z,2.65
2022-12-25T05:04:47.350Z,3.60
2022-12-25T05:05:49.066Z,2.83
2022-12-25T05:06:50.809Z,2.55
2022-12-25T05:07:52.568Z,2.45
2022-12-25T05:08:54.332Z,2.28
2022-12-25T05:09:56.111Z,2.75
2022-12-25T05:10:58.618Z,2.45
2022-12-25T05:12:00.358Z,2.50
2022-12-25T05:13:02.139Z,2.65
2022-12-25T05:14:03.902Z,2.50
2022-12-25T05:15:06.073Z,2.45
2022-12-25T05:16:10.406Z,2.80
2022-12-25T05:17:12.187Z,2.50
2022-12-25T05:18:13.901Z,2.88
2022-12-25T05:19:15.588Z,3.08
2022-12-25T05:20:17.399Z,2.50
2022-12-25T05:21:19.223Z,2.63
2022-12-25T05:22:20.920Z,2.60
2022-12-25T05:23:22.978Z,2.78
2022-12-25T05:24:28.459Z,2.90
2022-12-25T05:25:30.376Z,2.67
2022-12-25T05:26:32.097Z,3.00
2022-12-25T05:27:33.796Z,3.38
2022-12-25T05:28:36.086Z,2.92
2022-12-25T05:29:37.758Z,3.05
2022-12-25T05:30:39.762Z,2.85
2022-12-25T05:31:41.594Z,2.90
2022-12-25T05:32:43.433Z,2.92
2022-12-25T05:33:45.199Z,3.38
2022-12-25T05:34:46.947Z,2.97
2022-12-25T05:35:48.718Z,3.42
2022-12-25T05:36:50.468Z,3.03
2022-12-25T05:37:52.208Z,3.13
2022-12-25T05:38:53.969Z,3.10
2022-12-25T05:39:55.715Z,3.25
2022-12-25T05:40:57.525Z,3.83
2022-12-25T05:41:59.313Z,3.83
2022-12-25T05:43:01.032Z,3.15
2022-12-25T05:44:02.768Z,3.20
2022-12-25T05:45:04.826Z,3.50
2022-12-25T05:46:08.180Z,3.28
2022-12-25T05:47:10.020Z,3.35
2022-12-25T05:48:12.155Z,4.10
2022-12-25T05:49:13.959Z,3.42
2022-12-25T05:50:15.723Z,3.20
2022-12-25T05:51:17.438Z,3.53
2022-12-25T05:52:19.170Z,3.10
2022-12-25T05:53:20.907Z,3.35
2022-12-25T05:54:22.664Z,2.95
2022-12-25T05:55:24.355Z,3.10
2022-12-25T05:56:26.306Z,3.13
2022-12-25T05:57:31.971Z,3.15
2022-12-25T05:58:35.479Z,3.20
2022-12-25T05:59:37.164Z,2.60
2022-12-25T06:00:38.886Z,3.08
2022-12-25T06:01:40.725Z,2.75
2022-12-25T06:02:42.732Z,2.80
2022-12-25T06:03:44.693Z,2.67
2022-12-25T06:04:46.493Z,3.08
2022-12-25T06:05:48.319Z,3.35
2022-12-25T06:06:50.040Z,2.53
2022-12-25T06:07:51.720Z,2.65
2022-12-25T06:08:55.214Z,2.63
2022-12-25T06:09:56.966Z,2.58
2022-12-25T06:10:58.665Z,2.50
2022-12-25T06:12:00.400Z,2.33
2022-12-25T06:13:02.191Z,2.75
2022-12-25T06:14:03.949Z,2.60
2022-12-25T06:15:06.530Z,2.65
2022-12-25T06:16:11.608Z,2.65
2022-12-25T06:17:13.428Z,3.20
2022-12-25T06:18:15.163Z,2.70
2022-12-25T06:19:16.899Z,2.40
2022-12-25T06:20:18.710Z,2.70
2022-12-25T06:21:20.521Z,2.70
2022-12-25T06:22:22.272Z,2.78
2022-12-25T06:23:24.115Z,2.92
2022-12-25T06:24:25.883Z,2.60
2022-12-25T06:25:27.672Z,3.10
2022-12-25T06:26:29.411Z,2.88
2022-12-25T06:27:31.147Z,2.90
2022-12-25T06:28:32.871Z,2.78
2022-12-25T06:29:34.606Z,2.70
2022-12-25T06:30:36.296Z,3.10
2022-12-25T06:31:38.023Z,2.70
2022-12-25T06:32:39.739Z,2.78
2022-12-25T06:33:42.135Z,2.50
2022-12-25T06:34:43.835Z,2.30
2022-12-25T06:35:45.599Z,2.67
2022-12-25T06:36:47.292Z,2.40
2022-12-25T06:37:49.005Z,2.92
2022-12-25T06:39:00.462Z,2.70
2022-12-25T06:40:02.186Z,2.72
2022-12-25T06:41:12.961Z,2.33
2022-12-25T06:42:14.698Z,2.53
2022-12-25T06:43:16.388Z,2.22
2022-12-25T06:44:18.085Z,2.50
2022-12-25T06:45:19.792Z,2.67
2022-12-25T06:46:22.608Z,2.72
2022-12-25T06:47:24.333Z,2.65
2022-12-25T06:48:26.064Z,2.80
2022-12-25T06:49:27.785Z,4.07
2022-12-25T06:50:29.476Z,7.47
2022-12-25T06:51:32.690Z,5.65
2022-12-25T06:52:34.890Z,9.40
2022-12-25T06:53:40.315Z,8.65
2022-12-25T06:54:42.369Z,3.42
2022-12-25T06:55:44.109Z,3.60
2022-12-25T06:56:45.850Z,5.10
2022-12-25T06:57:47.549Z,3.72
2022-12-25T06:58:51.625Z,3.15
2022-12-25T06:59:55.535Z,2.75
2022-12-25T07:00:58.156Z,3.40
2022-12-25T07:02:00.056Z,3.03
2022-12-25T07:03:02.365Z,3.85
2022-12-25T07:04:07.692Z,3.10
2022-12-25T07:05:09.560Z,3.40
2022-12-25T07:06:11.448Z,3.10
2022-12-25T07:07:13.396Z,2.88
2022-12-25T07:08:15.062Z,2.83
2022-12-25T07:09:16.938Z,2.70
2022-12-25T07:10:18.642Z,3.17
2022-12-25T07:11:21.032Z,2.67
2022-12-25T07:12:24.434Z,2.75
2022-12-25T07:13:26.380Z,2.55
2022-12-25T07:14:28.210Z,2.95
2022-12-25T07:15:30.026Z,3.65
2022-12-25T07:16:31.928Z,2.97
2022-12-25T07:17:34.604Z,2.78
2022-12-25T07:18:36.513Z,2.95
2022-12-25T07:19:44.486Z,2.83
2022-12-25T07:20:46.781Z,2.65
2022-12-25T07:21:48.658Z,2.70
2022-12-25T07:22:50.415Z,2.60
2022-12-25T07:23:52.202Z,2.60
2022-12-25T07:24:53.914Z,2.30
2022-12-25T07:25:56.624Z,2.85
2022-12-25T07:26:58.337Z,2.50
2022-12-25T07:28:00.145Z,2.67
2022-12-25T07:29:01.910Z,2.40
2022-12-25T07:30:04.655Z,2.35
2022-12-25T07:31:17.582Z,2.20
2022-12-25T07:32:19.408Z,2.13
2022-12-25T07:33:21.149Z,2.45
2022-12-25T07:34:24.053Z,2.65
2022-12-25T07:35:25.965Z,2.20
2022-12-25T07:36:28.266Z,2.50
2022-12-25T07:37:29.963Z,2.80
2022-12-25T07:38:32.460Z,2.72
2022-12-25T07:39:35.533Z,2.22
2022-12-25T07:40:38.595Z,2.72
2022-12-25T07:41:40.485Z,2.15
2022-12-25T07:42:42.191Z,2.10
2022-12-25T07:43:44.023Z,2.33
2022-12-25T07:44:45.720Z,2.05
2022-12-25T07:45:47.545Z,2.40
2022-12-25T07:46:49.325Z,2.58
2022-12-25T07:47:53.858Z,2.40
2022-12-25T07:48:56.793Z,2.80
2022-12-25T07:49:58.485Z,2.83
2022-12-25T07:51:02.713Z,2.10
2022-12-25T07:52:04.658Z,2.80
2022-12-25T07:53:06.411Z,2.13
2022-12-25T07:54:08.165Z,1.90
2022-12-25T07:55:10.660Z,1.80
2022-12-25T07:56:18.184Z,1.90
2022-12-25T07:57:19.914Z,1.90
2022-12-25T07:58:23.600Z,2.50
2022-12-25T07:59:25.597Z,2.15
2022-12-25T08:00:29.952Z,2.03
2022-12-25T08:01:31.957Z,2.08
2022-12-25T08:02:34.046Z,2.50
2022-12-25T08:03:36.560Z,2.20
2022-12-25T08:04:38.447Z,1.80
2022-12-25T08:05:40.135Z,1.85
2022-12-25T08:06:41.836Z,2.00
2022-12-25T08:07:43.746Z,2.05
2022-12-25T08:08:45.862Z,2.05
2022-12-25T08:09:47.715Z,2.33
2022-12-25T08:10:49.464Z,2.17
2022-12-25T08:11:51.202Z,2.58
2022-12-25T08:12:56.204Z,2.38
2022-12-25T08:13:57.977Z,1.85
2022-12-25T08:14:59.697Z,2.10
2022-12-25T08:16:03.345Z,2.47
2022-12-25T08:17:05.255Z,2.20
2022-12-25T08:18:07.066Z,2.20
2022-12-25T08:19:09.490Z,1.90
2022-12-25T08:20:11.521Z,2.55
2022-12-25T08:21:14.827Z,2.53
2022-12-25T08:22:16.529Z,2.10
2022-12-25T08:23:18.276Z,2.50
2022-12-25T08:24:19.999Z,2.30
2022-12-25T08:25:21.755Z,2.58
2022-12-25T08:26:23.888Z,1.95
2022-12-25T08:27:25.629Z,1.50
2022-12-25T08:28:27.359Z,1.92
2022-12-25T08:29:29.153Z,1.80
2022-12-25T08:30:31.074Z,2.20
2022-12-25T08:31:37.269Z,1.92
2022-12-25T08:32:41.578Z,3.13
2022-12-25T08:33:44.350Z,2.17
2022-12-25T08:34:46.060Z,1.60
2022-12-25T08:35:47.872Z,2.00
2022-12-25T08:36:49.826Z,2.20
2022-12-25T08:37:51.860Z,2.67
2022-12-25T08:39:00.303Z,2.30
2022-12-25T08:40:04.700Z,2.55
2022-12-25T08:41:06.979Z,2.30
2022-12-25T08:42:08.704Z,2.40
2022-12-25T08:43:11.605Z,1.75
2022-12-25T08:44:14.458Z,1.67
2022-12-25T08:45:16.166Z,1.63
2022-12-25T08:46:18.022Z,2.50
2022-12-25T08:47:19.794Z,1.98
2022-12-25T08:48:21.572Z,1.80
2022-12-25T08:49:23.380Z,1.67
2022-12-25T08:50:26.134Z,1.80
2022-12-25T08:51:27.928Z,1.73
2022-12-25T08:52:29.659Z,2.08
2022-12-25T08:53:31.546Z,1.98
2022-12-25T08:54:34.936Z,2.08
2022-12-25T08:55:36.672Z,2.17
2022-12-25T08:56:38.696Z,2.22
2022-12-25T08:57:40.425Z,1.77
2022-12-25T08:58:42.458Z,1.73
2022-12-25T08:59:44.195Z,1.65
2022-12-25T09:00:45.914Z,1.85
2022-12-25T09:01:47.754Z,1.50
2022-12-25T09:02:49.630Z,2.00
2022-12-25T09:03:51.484Z,2.00
2022-12-25T09:04:53.243Z,1.92
2022-12-25T09:05:55.459Z,1.60
2022-12-25T09:06:57.195Z,1.85
2022-12-25T09:07:58.876Z,1.95
2022-12-25T09:09:00.583Z,1.90
2022-12-25T09:10:02.491Z,1.73
2022-12-25T09:11:06.452Z,1.83
2022-12-25T09:12:08.187Z,2.30
2022-12-25T09:13:10.057Z,2.30
2022-12-25T09:14:13.823Z,1.98
2022-12-25T09:15:15.632Z,2.17
2022-12-25T09:16:20.591Z,1.70
2022-12-25T09:17:22.385Z,1.75
2022-12-25T09:18:24.315Z,1.70
2022-12-25T09:19:26.008Z,1.90
2022-12-25T09:20:27.760Z,2.13
2022-12-25T09:21:29.591Z,2.60
2022-12-25T09:22:31.293Z,1.50
2022-12-25T09:23:34.442Z,1.48
2022-12-25T09:24:36.176Z,1.55
2022-12-25T09:25:37.961Z,1.90
2022-12-25T09:26:39.709Z,1.80
2022-12-25T09:27:43.698Z,1.77
2022-12-25T09:28:51.447Z,1.40
2022-12-25T09:29:54.211Z,1.75
2022-12-25T09:30:56.136Z,2.03
2022-12-25T09:31:57.893Z,2.20
2022-12-25T09:32:59.594Z,1.63
2022-12-25T09:34:01.888Z,1.50
2022-12-25T09:35:03.631Z,2.22
2022-12-25T09:36:08.394Z,2.33
2022-12-25T09:37:10.389Z,2.70
2022-12-25T09:38:12.129Z,2.95
2022-12-25T09:39:13.906Z,2.22
2022-12-25T09:40:18.877Z,1.95
2022-12-25T09:41:45.362Z,3.10
2022-12-25T09:42:48.798Z,1.80
2022-12-25T09:43:55.280Z,4.60
2022-12-25T09:45:03.010Z,2.63
2022-12-25T09:46:09.035Z,3.08
2022-12-25T09:47:18.390Z,3.33
2022-12-25T09:48:20.401Z,2.63
2022-12-25T09:49:28.313Z,3.63
2022-12-25T09:50:48.247Z,4.10
2022-12-25T09:51:55.140Z,2.83
2022-12-25T09:53:05.049Z,3.45
2022-12-25T09:54:19.785Z,4.80
2022-12-25T09:55:24.527Z,3.10
2022-12-25T09:56:26.402Z,3.42
2022-12-25T09:57:28.151Z,3.50
2022-12-25T09:58:33.105Z,2.65
2022-12-25T09:59:35.279Z,1.95
2022-12-25T10:01:02.318Z,2.05
2022-12-25T10:02:23.137Z,2.00
2022-12-25T10:03:41.862Z,1.85
2022-12-25T10:04:56.794Z,1.75
2022-12-25T10:06:07.225Z,2.15
2022-12-25T10:07:11.769Z,2.35
2022-12-25T10:08:48.733Z,1.63
2022-12-25T10:10:43.239Z,2.42
2022-12-25T10:11:48.059Z,3.03
2022-12-25T10:12:52.786Z,2.95
2022-12-25T10:14:22.437Z,3.13
2022-12-25T10:15:46.213Z,2.28
2022-12-25T10:17:09.813Z,1.90
2022-12-25T10:18:25.203Z,2.47
2022-12-25T10:19:26.870Z,1.80
2022-12-25T10:20:54.829Z,1.60
2022-12-25T10:22:02.621Z,1.92
2022-12-25T10:23:12.347Z,1.98
2022-12-25T10:24:35.693Z,1.70
2022-12-25T10:25:39.473Z,1.92
2022-12-25T10:26:41.378Z,2.13
2022-12-25T10:27:43.369Z,1.73
2022-12-25T10:28:57.290Z,2.22
2022-12-25T10:29:59.583Z,2.10
2022-12-25T10:31:15.394Z,1.63
2022-12-25T10:32:17.119Z,1.90
2022-12-25T10:33:19.191Z,2.20
2022-12-25T10:34:22.070Z,2.30
2022-12-25T10:35:27.658Z,1.80
2022-12-25T10:36:30.626Z,1.67
2022-12-25T10:37:32.489Z,1.73
2022-12-25T10:38:34.235Z,2.15
2022-12-25T10:39:39.713Z,2.13
2022-12-25T10:41:19.035Z,1.67
2022-12-25T10:42:26.757Z,2.03
2022-12-25T10:43:43.735Z,2.10
2022-12-25T10:44:56.425Z,2.50
2022-12-25T10:45:59.481Z,2.83
2022-12-25T10:47:03.080Z,3.10
2022-12-25T10:48:07.610Z,3.40
2022-12-25T10:49:16.152Z,3.20
2022-12-25T10:50:24.701Z,2.70
2022-12-25T10:51:27.921Z,3.20
2022-12-25T10:52:29.676Z,3.45
2022-12-25T10:53:42.224Z,2.60
2022-12-25T10:54:44.130Z,2.30
2022-12-25T10:56:04.566Z,2.05
2022-12-25T10:57:09.041Z,1.60
2022-12-25T10:58:20.049Z,1.83
2022-12-25T10:59:21.864Z,1.50
2022-12-25T11:00:26.154Z,1.73
2022-12-25T11:01:28.604Z,1.60
2022-12-25T11:02:40.978Z,1.83
2022-12-25T11:03:51.497Z,2.10
2022-12-25T11:05:06.004Z,2.00
2022-12-25T11:06:25.494Z,2.25
2022-12-25T11:07:27.382Z,1.95
2022-12-25T11:08:31.529Z,2.22
2022-12-25T11:09:34.219Z,2.00
2022-12-25T11:10:39.173Z,2.25
2022-12-25T11:11:41.840Z,2.15
2022-12-25T11:12:46.128Z,1.60
2022-12-25T11:13:51.974Z,1.67
2022-12-25T11:15:03.079Z,1.88
2022-12-25T11:17:10.313Z,1.75
2022-12-25T11:18:24.233Z,2.33
2022-12-25T11:19:29.486Z,2.70
2022-12-25T11:20:31.252Z,2.70
2022-12-25T11:21:36.804Z,2.30
2022-12-25T11:22:45.307Z,2.50
2022-12-25T11:23:50.519Z,2.00
2022-12-25T11:24:52.313Z,3.08
2022-12-25T11:26:07.538Z,2.50
2022-12-25T11:27:30.364Z,2.17
2022-12-25T11:28:34.831Z,2.58
2022-12-25T11:29:49.366Z,2.00
2022-12-25T11:30:55.557Z,2.05
2022-12-25T11:32:00.503Z,2.10
2022-12-25T11:33:11.596Z,2.10
2022-12-25T11:35:32.658Z,2.20
2022-12-25T11:36:47.154Z,2.35
2022-12-25T11:37:51.195Z,2.42
2022-12-25T11:38:52.951Z,2.45
2022-12-25T11:39:54.740Z,2.22
2022-12-25T11:41:01.280Z,1.98
2022-12-25T11:42:07.119Z,1.90
2022-12-25T11:43:26.551Z,1.55
2022-12-25T11:44:41.554Z,2.00
2022-12-25T11:45:49.371Z,2.00
2022-12-25T11:46:52.295Z,1.90
2022-12-25T11:48:07.166Z,1.70
2022-12-25T11:49:16.565Z,1.30
2022-12-25T11:50:39.661Z,1.08
2022-12-25T11:51:46.071Z,1.02
2022-12-25T11:52:48.810Z,1.33
2022-12-25T11:54:03.872Z,1.58
2022-12-25T11:55:29.392Z,2.00
2022-12-25T11:56:31.252Z,1.70
2022-12-25T11:57:35.795Z,1.25
2022-12-25T11:58:52.755Z,1.23
2022-12-25T12:00:03.858Z,1.63
2022-12-25T12:01:17.394Z,1.92
2022-12-25T12:02:25.195Z,1.50
2022-12-25T12:03:37.787Z,1.60
2022-12-25T12:04:43.832Z,2.00
2022-12-25T12:05:52.304Z,1.20
2022-12-25T12:07:02.946Z,1.40
2022-12-25T12:08:06.348Z,1.20
2022-12-25T12:09:26.291Z,1.27
2022-12-25T12:10:34.423Z,1.38
2022-12-25T12:11:44.820Z,1.08
2022-12-25T12:13:08.479Z,1.30
2022-12-25T12:14:39.705Z,1.85
2022-12-25T12:15:46.728Z,1.05
2022-12-25T12:16:48.718Z,1.05
2022-12-25T12:17:50.537Z,1.25
2022-12-25T12:18:52.343Z,1.10
2022-12-25T12:19:54.124Z,1.30
2022-12-25T12:21:05.105Z,1.10
2022-12-25T12:22:07.129Z,1.33
2022-12-25T12:23:16.058Z,1.27
2022-12-25T12:24:21.051Z,1.73
2022-12-25T12:25:23.123Z,1.40
2022-12-25T12:26:26.487Z,1.38
2022-12-25T12:27:41.149Z,5.22
2022-12-25T12:28:46.048Z,2.63
2022-12-25T12:29:52.303Z,1.27
2022-12-25T12:31:04.241Z,1.08
2022-12-25T12:32:20.074Z,1.48
2022-12-25T12:33:36.085Z,1.30
2022-12-25T12:34:42.870Z,1.30
2022-12-25T12:35:45.253Z,1.50
2022-12-25T12:36:47.016Z,1.40
2022-12-25T12:37:54.129Z,1.85
2022-12-25T12:38:58.666Z,4.07
2022-12-25T12:40:01.418Z,3.00
2022-12-25T12:41:07.189Z,3.13
2022-12-25T12:42:18.887Z,2.97
2022-12-25T12:43:45.309Z,1.90
2022-12-25T12:44:49.699Z,1.70
2022-12-25T12:46:04.645Z,1.35
2022-12-25T12:47:06.438Z,1.40
2022-12-25T12:48:16.201Z,1.25
2022-12-25T12:49:25.434Z,1.08
2022-12-25T12:50:32.663Z,1.20
2022-12-25T12:51:37.137Z,1.48
2022-12-25T12:52:41.098Z,1.40
2022-12-25T12:53:43.908Z,2.00
2022-12-25T12:54:59.631Z,1.80
2022-12-25T12:56:21.001Z,1.60
2022-12-25T12:58:33.240Z,1.23
2022-12-25T12:59:40.211Z,1.38
2022-12-25T13:01:14.346Z,1.60
2022-12-25T13:02:38.078Z,2.17
2022-12-25T13:04:15.287Z,1.80
2022-12-25T13:05:16.973Z,2.63
2022-12-25T13:06:33.781Z,2.35
2022-12-25T13:08:37.342Z,4.85
2022-12-25T13:09:41.659Z,3.05
2022-12-25T13:10:53.033Z,6.53
2022-12-25T13:11:55.064Z,3.10
2022-12-25T13:13:21.860Z,2.92
2022-12-25T13:14:25.193Z,4.30
2022-12-25T13:15:30.610Z,3.13
2022-12-25T13:16:44.710Z,3.35
2022-12-25T13:17:48.783Z,4.18
2022-12-25T13:18:53.365Z,4.43
2022-12-25T13:19:58.790Z,4.13
2022-12-25T13:21:05.214Z,3.13
2022-12-25T13:22:07.370Z,1.98
2022-12-25T13:23:36.856Z,3.17
2022-12-25T13:24:38.588Z,3.28
2022-12-25T13:25:40.353Z,3.90
2022-12-25T13:26:42.075Z,3.30
2022-12-25T13:27:43.761Z,4.65
2022-12-25T13:28:47.124Z,2.67
2022-12-25T13:29:48.934Z,3.60
2022-12-25T13:30:50.774Z,2.67
2022-12-25T13:31:53.351Z,1.98
2022-12-25T13:32:57.072Z,1.50
2022-12-25T13:34:07.129Z,2.53
2022-12-25T13:35:16.754Z,2.42
2022-12-25T13:36:18.649Z,2.17
2022-12-25T13:37:24.056Z,1.80
2022-12-25T13:38:29.127Z,1.75
2022-12-25T13:39:30.919Z,1.80
2022-12-25T13:40:32.814Z,1.70
2022-12-25T13:42:05.811Z,1.80
2022-12-25T13:43:11.502Z,1.50
2022-12-25T13:44:42.621Z,1.40
2022-12-25T13:45:55.021Z,1.88
2022-12-25T13:46:56.957Z,1.50
2022-12-25T13:48:09.237Z,1.73
2022-12-25T13:49:17.907Z,1.60
2022-12-25T13:50:30.551Z,1.52
2022-12-25T13:51:32.271Z,1.70
2022-12-25T13:52:35.960Z,1.65
2022-12-25T13:53:37.875Z,2.10
2022-12-25T13:54:40.603Z,1.90
2022-12-25T13:55:48.075Z,2.10
2022-12-25T13:56:55.522Z,4.00
2022-12-25T13:57:57.937Z,4.82
2022-12-25T13:59:00.251Z,4.57
2022-12-25T14:00:03.174Z,3.47
2022-12-25T14:01:05.406Z,2.85
2022-12-25T14:02:19.135Z,2.70
2022-12-25T14:03:44.133Z,2.35
2022-12-25T14:04:45.906Z,2.30
2022-12-25T14:06:02.575Z,2.75
2022-12-25T14:07:12.210Z,3.40
2022-12-25T14:08:17.732Z,3.38
2022-12-25T14:09:20.427Z,3.38
2022-12-25T14:10:24.602Z,2.83
2022-12-25T14:11:29.513Z,2.63
2022-12-25T14:12:33.082Z,2.42
2022-12-25T14:13:41.839Z,1.90
2022-12-25T14:14:43.965Z,2.22
2022-12-25T14:15:48.039Z,2.15
2022-12-25T14:16:53.537Z,2.63
2022-12-25T14:17:55.693Z,2.47
2022-12-25T14:19:01.141Z,2.80
2022-12-25T14:20:08.394Z,2.58
2022-12-25T14:21:16.436Z,4.97
2022-12-25T14:22:21.647Z,4.15
2022-12-25T14:23:23.687Z,5.00
2022-12-25T14:24:26.941Z,2.80
2022-12-25T14:25:32.477Z,3.10
2022-12-25T14:26:34.341Z,3.60
2022-12-25T14:27:36.089Z,3.30
2022-12-25T14:28:37.906Z,3.78
2022-12-25T14:29:44.589Z,5.95
2022-12-25T14:30:46.815Z,5.13
2022-12-25T14:31:48.860Z,3.47
2022-12-25T14:32:53.915Z,4.03
2022-12-25T14:33:55.975Z,10.30
2022-12-25T14:35:03.591Z,10.02
2022-12-25T14:36:07.051Z,5.20
2022-12-25T14:37:16.675Z,4.65
2022-12-25T14:38:26.360Z,3.80
2022-12-25T14:39:38.732Z,6.38
2022-12-25T14:40:43.413Z,7.90
2022-12-25T14:41:52.995Z,5.10
2022-12-25T14:42:57.591Z,4.50
2022-12-25T14:44:01.764Z,4.43
2022-12-25T14:45:22.250Z,4.78
2022-12-25T14:46:26.273Z,4.80
2022-12-25T14:47:28.619Z,5.75
2022-12-25T14:48:31.904Z,10.32
2022-12-25T14:49:33.678Z,8.70
2022-12-25T14:50:42.002Z,7.05
2022-12-25T14:51:43.825Z,4.78
2022-12-25T14:52:45.813Z,3.70
2022-12-25T14:53:53.720Z,3.75
2022-12-25T14:55:05.452Z,3.78
2022-12-25T14:56:09.617Z,3.38
2022-12-25T14:57:18.510Z,3.20
2022-12-25T14:58:23.114Z,4.10
2022-12-25T14:59:26.696Z,4.45